createdAt,value
2022-12-06T00:00:48.727Z,1.91
2022-12-06T00:03:15.410Z,1.93
2022-12-06T00:05:46.024Z,1.89
2022-12-06T00:08:13.166Z,1.87
2022-12-06T00:10:39.732Z,1.89
2022-12-06T00:13:06.254Z,1.91
2022-12-06T00:15:35.336Z,1.88
2022-12-06T00:18:01.898Z,1.88
2022-12-06T00:20:28.419Z,1.88
2022-12-06T00:22:54.968Z,1.89
2022-12-06T00:25:21.495Z,1.87
2022-12-06T00:27:47.986Z,1.90
2022-12-06T00:30:14.628Z,1.90
2022-12-06T00:32:41.164Z,1.93
2022-12-06T00:35:07.960Z,1.90
2022-12-06T00:37:34.474Z,1.93
2022-12-06T00:40:01.427Z,1.93
2022-12-06T00:42:28.256Z,1.92
2022-12-06T00:44:54.720Z,1.89
2022-12-06T00:47:21.235Z,1.89
2022-12-06T00:49:47.742Z,1.89
2022-12-06T00:52:14.222Z,1.90
2022-12-06T00:54:40.720Z,1.90
2022-12-06T00:57:07.201Z,1.91
2022-12-06T00:59:33.737Z,1.93
2022-12-06T01:02:00.582Z,1.89
2022-12-06T01:04:27.068Z,1.85
2022-12-06T01:06:53.913Z,1.81
2022-12-06T01:09:20.504Z,1.81
2022-12-06T01:11:46.997Z,1.77
2022-12-06T01:14:13.551Z,1.77
2022-12-06T01:16:40.143Z,1.78
2022-12-06T01:19:06.809Z,1.74
2022-12-06T01:21:33.359Z,1.72
2022-12-06T01:23:59.900Z,1.71
2022-12-06T01:26:28.006Z,1.66
2022-12-06T01:28:55.066Z,1.65
2022-12-06T01:31:21.932Z,1.65
2022-12-06T01:33:48.686Z,1.64
2022-12-06T01:36:23.167Z,1.61
2022-12-06T01:38:50.979Z,1.62
2022-12-06T01:41:17.966Z,1.59
2022-12-06T01:43:45.044Z,1.56
2022-12-06T01:46:22.324Z,1.56
2022-12-06T01:48:50.495Z,1.55
2022-12-06T01:51:17.605Z,1.55
2022-12-06T01:53:46.083Z,1.52
2022-12-06T01:56:12.922Z,1.50
2022-12-06T01:58:40.707Z,1.50
2022-12-06T02:01:09.603Z,1.45
2022-12-06T02:03:36.765Z,1.44
2022-12-06T02:06:07.420Z,1.42
2022-12-06T02:08:34.578Z,1.43
2022-12-06T02:11:02.223Z,1.39
2022-12-06T02:13:29.684Z,1.39
2022-12-06T02:16:05.220Z,1.39
2022-12-06T02:18:34.959Z,1.39
2022-12-06T02:21:06.168Z,1.41
2022-12-06T02:23:44.847Z,1.40
2022-12-06T02:26:17.212Z,1.39
2022-12-06T02:29:08.858Z,1.38
2022-12-06T02:31:38.205Z,1.38
2022-12-06T02:34:04.765Z,1.40
2022-12-06T02:36:34.080Z,1.41
2022-12-06T02:39:05.571Z,1.42
2022-12-06T02:41:38.527Z,1.44
2022-12-06T02:44:06.576Z,1.35
2022-12-06T02:46:36.108Z,1.33
2022-12-06T02:49:03.961Z,1.31
2022-12-06T02:51:32.344Z,1.25
2022-12-06T02:54:01.222Z,1.22
2022-12-06T02:56:28.484Z,1.16
2022-12-06T02:58:55.008Z,1.13
2022-12-06T03:01:25.022Z,1.10
2022-12-06T03:04:10.016Z,1.04
2022-12-06T03:06:45.561Z,0.98
2022-12-06T03:09:21.240Z,0.97
2022-12-06T03:11:54.041Z,0.96
2022-12-06T03:14:24.923Z,0.93
2022-12-06T03:16:56.326Z,0.92
2022-12-06T03:19:27.578Z,0.88
2022-12-06T03:22:14.378Z,0.87
2022-12-06T03:24:41.899Z,0.84
2022-12-06T03:27:11.291Z,0.86
2022-12-06T03:29:40.657Z,0.90
2022-12-06T03:32:08.241Z,0.90
2022-12-06T03:34:39.647Z,0.89
2022-12-06T03:37:07.862Z,0.88
2022-12-06T03:39:46.822Z,0.87
2022-12-06T03:42:13.924Z,0.89
2022-12-06T03:44:40.522Z,0.89
2022-12-06T03:47:10.127Z,0.86
2022-12-06T03:49:43.047Z,0.87
2022-12-06T03:52:09.927Z,0.84
2022-12-06T03:54:38.964Z,0.85
2022-12-06T03:57:06.055Z,0.80
2022-12-06T03:59:32.805Z,0.82
2022-12-06T04:01:59.438Z,0.89
2022-12-06T04:04:26.103Z,0.88
2022-12-06T04:06:52.888Z,0.88
2022-12-06T04:09:38.047Z,0.86
2022-12-06T04:12:24.619Z,0.92
2022-12-06T04:14:51.184Z,0.91
2022-12-06T04:17:36.623Z,0.88
2022-12-06T04:20:03.782Z,0.89
2022-12-06T04:22:49.132Z,0.90
2022-12-06T04:25:15.732Z,0.95
2022-12-06T04:28:01.025Z,0.94
2022-12-06T04:30:45.979Z,0.94
2022-12-06T04:33:30.891Z,0.92
2022-12-06T04:36:15.725Z,0.95
2022-12-06T04:38:42.502Z,0.94
2022-12-06T04:41:09.658Z,0.96
2022-12-06T04:43:42.249Z,0.98
2022-12-06T04:46:17.836Z,0.94
2022-12-06T04:48:44.445Z,0.99
2022-12-06T04:51:13.860Z,0.96
2022-12-06T04:53:40.360Z,0.90
2022-12-06T04:56:06.885Z,0.87
2022-12-06T04:58:33.489Z,0.92
2022-12-06T05:01:00.183Z,0.89
2022-12-06T05:03:26.832Z,0.93
2022-12-06T05:05:53.368Z,1.05
2022-12-06T05:08:19.999Z,0.94
2022-12-06T05:10:48.069Z,0.84
2022-12-06T05:13:15.802Z,0.84
2022-12-06T05:15:51.514Z,0.83
2022-12-06T05:18:18.126Z,0.83
2022-12-06T05:20:44.761Z,0.82
2022-12-06T05:23:11.368Z,0.81
2022-12-06T05:25:37.972Z,0.81
2022-12-06T05:28:04.606Z,0.76
2022-12-06T05:30:31.605Z,0.73
2022-12-06T05:32:58.188Z,0.73
2022-12-06T05:35:24.730Z,0.74
2022-12-06T05:37:51.255Z,0.74
2022-12-06T05:40:17.886Z,0.73
2022-12-06T05:42:44.527Z,0.73
2022-12-06T05:45:11.416Z,0.71
2022-12-06T05:47:37.926Z,0.67
2022-12-06T05:50:04.830Z,0.64
2022-12-06T05:52:31.365Z,0.54
2022-12-06T05:54:57.949Z,0.52
2022-12-06T05:57:24.496Z,0.49
2022-12-06T05:59:51.096Z,0.48
2022-12-06T06:02:17.971Z,0.47
2022-12-06T06:04:44.737Z,0.42
2022-12-06T06:07:11.246Z,0.39
2022-12-06T06:09:37.820Z,0.31
2022-12-06T06:12:08.146Z,0.23
2022-12-06T06:14:38.692Z,0.20
2022-12-06T06:17:05.269Z,0.15
2022-12-06T06:19:31.842Z,0.13
2022-12-06T06:21:58.408Z,0.11
2022-12-06T06:24:24.925Z,0.09
2022-12-06T06:26:51.457Z,0.06
2022-12-06T06:29:18.048Z,-0.08
2022-12-06T06:31:44.727Z,-0.09
2022-12-06T06:34:11.297Z,-0.09
2022-12-06T06:36:42.387Z,-0.09
2022-12-06T06:39:12.215Z,-0.10
2022-12-06T06:41:38.839Z,-0.08
2022-12-06T06:44:05.535Z,-0.10
2022-12-06T06:46:32.233Z,-0.09
2022-12-06T06:48:58.856Z,-0.06
2022-12-06T06:51:25.419Z,0.01
2022-12-06T06:53:51.964Z,-0.03
2022-12-06T06:56:18.531Z,-0.04
2022-12-06T06:58:45.088Z,-0.05
2022-12-06T07:01:18.018Z,0.01
2022-12-06T07:03:44.654Z,0.04
2022-12-06T07:06:11.559Z,0.07
2022-12-06T07:08:39.304Z,0.04
2022-12-06T07:11:06.120Z,-0.01
2022-12-06T07:13:32.804Z,-0.02
2022-12-06T07:15:59.371Z,0.03
2022-12-06T07:18:25.970Z,0.05
2022-12-06T07:21:04.012Z,0.08
2022-12-06T07:23:31.448Z,0.17
2022-12-06T07:26:06.271Z,0.23
2022-12-06T07:28:36.778Z,0.19
2022-12-06T07:31:10.620Z,0.16
2022-12-06T07:33:37.257Z,0.14
2022-12-06T07:36:12.047Z,0.12
2022-12-06T07:38:39.308Z,0.09
2022-12-06T07:41:27.384Z,0.08
2022-12-06T07:44:13.334Z,0.08
2022-12-06T07:46:40.281Z,0.12
2022-12-06T07:49:06.938Z,0.12
2022-12-06T07:51:34.302Z,0.18
2022-12-06T07:54:01.082Z,0.27
2022-12-06T07:56:27.858Z,0.35
2022-12-06T07:58:54.649Z,0.37
2022-12-06T08:01:21.281Z,0.43
2022-12-06T08:03:48.019Z,0.45
2022-12-06T08:06:14.644Z,0.47
2022-12-06T08:08:41.240Z,0.48
2022-12-06T08:11:08.465Z,0.52
2022-12-06T08:13:36.171Z,0.56
2022-12-06T08:16:06.884Z,0.63
2022-12-06T08:18:33.584Z,0.73
2022-12-06T08:21:00.114Z,0.83
2022-12-06T08:23:33.663Z,0.94
2022-12-06T08:26:02.321Z,1.10
2022-12-06T08:28:29.576Z,1.27
2022-12-06T08:31:02.723Z,1.29
2022-12-06T08:33:29.612Z,1.25
2022-12-06T08:35:56.168Z,1.31
2022-12-06T08:38:22.740Z,1.42
2022-12-06T08:40:49.426Z,1.49
2022-12-06T08:43:16.013Z,1.56
2022-12-06T08:45:42.572Z,1.66
2022-12-06T08:48:09.146Z,1.72
2022-12-06T08:50:35.724Z,1.77
2022-12-06T08:53:02.241Z,1.85
2022-12-06T08:55:28.859Z,1.90
2022-12-06T08:57:55.404Z,1.97
2022-12-06T09:00:22.002Z,2.07
2022-12-06T09:02:48.548Z,2.06
2022-12-06T09:05:15.175Z,2.05
2022-12-06T09:07:41.751Z,2.09
2022-12-06T09:10:08.667Z,2.07
2022-12-06T09:12:35.228Z,2.10
2022-12-06T09:15:01.769Z,2.02
2022-12-06T09:17:28.364Z,2.00
2022-12-06T09:19:55.068Z,2.01
2022-12-06T09:22:21.617Z,2.00
2022-12-06T09:24:48.259Z,1.99
2022-12-06T09:27:14.751Z,2.00
2022-12-06T09:29:41.364Z,2.02
2022-12-06T09:32:07.896Z,2.01
2022-12-06T09:34:34.484Z,2.05
2022-12-06T09:37:07.263Z,2.09
2022-12-06T09:39:36.884Z,2.11
2022-12-06T09:42:11.095Z,2.32
2022-12-06T09:44:56.281Z,2.26
2022-12-06T09:47:40.846Z,2.28
2022-12-06T09:50:24.171Z,2.37
2022-12-06T09:52:56.802Z,2.36
2022-12-06T09:55:38.360Z,2.38
2022-12-06T09:58:14.009Z,2.43
2022-12-06T10:00:48.160Z,2.34
2022-12-06T10:03:33.165Z,2.25
2022-12-06T10:06:02.813Z,2.23
2022-12-06T10:09:05.121Z,2.22
2022-12-06T10:11:40.605Z,2.08
2022-12-06T10:14:15.761Z,2.13
2022-12-06T10:17:02.639Z,1.95
2022-12-06T10:19:29.125Z,1.79
2022-12-06T10:22:12.098Z,1.80
2022-12-06T10:24:47.815Z,1.74
2022-12-06T10:27:40.568Z,1.71
2022-12-06T10:30:10.783Z,1.70
2022-12-06T10:32:54.282Z,1.65
2022-12-06T10:35:39.576Z,1.67
2022-12-06T10:38:35.534Z,1.65
2022-12-06T10:41:06.137Z,1.66
2022-12-06T10:43:51.376Z,1.67
2022-12-06T10:46:45.669Z,1.73
2022-12-06T10:49:15.141Z,1.78
2022-12-06T10:51:45.523Z,1.75
2022-12-06T10:54:22.322Z,1.72
2022-12-06T10:56:51.605Z,1.61
2022-12-06T10:59:18.257Z,1.61
2022-12-06T11:01:45.500Z,1.61
2022-12-06T11:04:12.026Z,1.68
2022-12-06T11:06:50.017Z,1.75
2022-12-06T11:09:23.992Z,1.67
2022-12-06T11:11:50.925Z,1.60
2022-12-06T11:14:24.738Z,1.54
2022-12-06T11:16:57.243Z,1.56
2022-12-06T11:19:35.687Z,1.61
2022-12-06T11:22:11.120Z,1.73
2022-12-06T11:24:47.586Z,1.90
2022-12-06T11:27:16.443Z,1.98
2022-12-06T11:29:48.786Z,1.96
2022-12-06T11:32:16.620Z,1.97
2022-12-06T11:34:48.377Z,1.98
2022-12-06T11:37:16.812Z,2.01
2022-12-06T11:39:43.884Z,1.99
2022-12-06T11:42:13.188Z,2.00
2022-12-06T11:44:42.436Z,2.00
2022-12-06T11:47:15.045Z,2.11
2022-12-06T11:49:43.740Z,2.14
2022-12-06T11:52:33.653Z,2.16
2022-12-06T11:55:02.826Z,2.14
2022-12-06T11:57:32.177Z,2.14
2022-12-06T12:00:11.565Z,2.17
2022-12-06T12:02:38.716Z,2.11
2022-12-06T12:05:19.172Z,2.08
2022-12-06T12:07:48.757Z,2.11
2022-12-06T12:10:34.404Z,2.11
2022-12-06T12:13:31.880Z,2.06
2022-12-06T12:16:00.823Z,2.08
2022-12-06T12:18:33.472Z,2.19
2022-12-06T12:21:00.576Z,2.15
2022-12-06T12:23:35.160Z,2.22
2022-12-06T12:26:11.684Z,2.15
2022-12-06T12:28:41.503Z,2.05
2022-12-06T12:31:19.581Z,2.05
2022-12-06T12:33:46.258Z,2.02
2022-12-06T12:36:20.383Z,2.00
2022-12-06T12:38:53.934Z,1.98
2022-12-06T12:41:33.945Z,1.93
2022-12-06T12:47:02.803Z,1.88
2022-12-06T12:49:31.765Z,1.90
2022-12-06T12:51:59.086Z,1.86
2022-12-06T12:54:36.615Z,1.84
2022-12-06T12:57:07.887Z,1.81
2022-12-06T12:59:37.980Z,1.78
2022-12-06T13:02:13.616Z,1.77
2022-12-06T13:04:44.506Z,1.78
2022-12-06T13:07:25.507Z,1.72
2022-12-06T13:09:59.095Z,1.67
2022-12-06T13:12:55.065Z,1.65
2022-12-06T13:15:47.344Z,1.59
2022-12-06T13:18:22.683Z,1.56
2022-12-06T13:20:50.361Z,1.50
2022-12-06T13:23:19.213Z,1.46
2022-12-06T13:25:57.700Z,1.45
2022-12-06T13:28:28.042Z,1.43
2022-12-06T13:30:59.063Z,1.41
2022-12-06T13:33:27.459Z,1.37
2022-12-06T13:35:56.766Z,1.36
2022-12-06T13:38:30.305Z,1.36
2022-12-06T13:40:57.928Z,1.32
2022-12-06T13:43:24.407Z,1.31
2022-12-06T13:45:52.001Z,1.30
2022-12-06T13:48:24.454Z,1.31
2022-12-06T13:50:53.850Z,1.31
2022-12-06T13:53:21.566Z,1.24
2022-12-06T13:55:56.012Z,1.21
2022-12-06T13:58:25.601Z,1.19
2022-12-06T14:00:52.522Z,1.17
2022-12-06T14:03:19.174Z,1.15
2022-12-06T14:08:26.017Z,1.02
2022-12-06T14:10:52.604Z,0.99
2022-12-06T14:13:21.216Z,0.99
2022-12-06T14:15:49.441Z,1.00
2022-12-06T14:18:20.196Z,0.94
2022-12-06T14:20:48.134Z,0.94
2022-12-06T14:23:28.968Z,0.95
2022-12-06T14:26:14.978Z,0.93
2022-12-06T14:28:42.000Z,0.94
2022-12-06T14:31:17.659Z,0.93
2022-12-06T14:33:45.175Z,0.94
2022-12-06T14:36:20.488Z,0.93
2022-12-06T14:38:55.898Z,0.91
2022-12-06T14:41:46.936Z,0.92
2022-12-06T14:44:17.085Z,0.91
2022-12-06T14:46:45.185Z,0.89
2022-12-06T14:49:36.005Z,0.89
2022-12-06T14:52:02.896Z,0.86
2022-12-06T14:54:33.939Z,0.82
2022-12-06T14:57:01.127Z,0.80
2022-12-06T15:00:10.813Z,0.69
2022-12-06T15:02:21.295Z,0.61
2022-12-06T15:04:47.889Z,0.55
2022-12-06T15:07:33.468Z,0.54
2022-12-06T15:10:17.566Z,0.54
2022-12-06T15:12:56.205Z,0.53
2022-12-06T15:15:32.519Z,0.48
2022-12-06T15:18:13.364Z,0.35
2022-12-06T15:20:40.144Z,0.30
2022-12-06T15:23:18.880Z,0.27
2022-12-06T15:25:45.416Z,0.24
2022-12-06T15:28:16.812Z,0.22
2022-12-06T15:30:46.180Z,0.22
2022-12-06T15:33:17.140Z,0.23
2022-12-06T15:35:43.684Z,0.24
2022-12-06T15:38:10.565Z,0.28
2022-12-06T15:40:37.500Z,0.27
2022-12-06T15:43:04.080Z,0.27
2022-12-06T15:45:32.189Z,0.25
2022-12-06T15:47:58.726Z,0.22
2022-12-06T15:50:25.257Z,0.23
2022-12-06T15:52:51.801Z,0.19
2022-12-06T15:55:19.770Z,0.16
2022-12-06T15:57:46.376Z,0.14
2022-12-06T16:00:13.302Z,0.08
2022-12-06T16:02:39.805Z,0.00
2022-12-06T16:05:06.610Z,-0.13
2022-12-06T16:07:33.126Z,-0.14
2022-12-06T16:10:00.097Z,-0.11
2022-12-06T16:12:46.761Z,-0.17
2022-12-06T16:15:13.364Z,-0.18
2022-12-06T16:17:39.897Z,-0.20
2022-12-06T16:20:25.564Z,-0.21
2022-12-06T16:23:10.416Z,-0.21
2022-12-06T16:25:36.968Z,-0.23
2022-12-06T16:28:03.533Z,-0.21
2022-12-06T16:30:34.107Z,-0.25
2022-12-06T16:33:04.345Z,-0.28
2022-12-06T16:35:34.082Z,-0.31
2022-12-06T16:38:00.761Z,-0.34
2022-12-06T16:40:28.865Z,-0.39
2022-12-06T16:42:55.471Z,-0.42
2022-12-06T16:45:22.043Z,-0.46
2022-12-06T16:47:48.781Z,-0.46
2022-12-06T16:50:23.574Z,-0.47
2022-12-06T16:52:50.816Z,-0.47
2022-12-06T16:55:17.420Z,-0.57
2022-12-06T16:57:43.981Z,-0.70
2022-12-06T17:00:11.484Z,-0.71
2022-12-06T17:02:38.260Z,-0.67
2022-12-06T17:05:08.389Z,-0.69
2022-12-06T17:07:35.630Z,-0.72
2022-12-06T17:10:02.240Z,-0.88
2022-12-06T17:12:28.787Z,-0.95
2022-12-06T17:14:55.404Z,-0.90
2022-12-06T17:17:22.343Z,-0.83
2022-12-06T17:19:49.482Z,-0.79
2022-12-06T17:22:16.572Z,-0.82
2022-12-06T17:24:43.406Z,-0.87
2022-12-06T17:27:10.180Z,-0.88
2022-12-06T17:29:37.107Z,-0.85
2022-12-06T17:32:03.720Z,-0.86
2022-12-06T17:34:30.285Z,-0.86
2022-12-06T17:36:58.047Z,-0.93
2022-12-06T17:39:24.977Z,-0.91
2022-12-06T17:42:10.088Z,-0.87
2022-12-06T17:44:36.684Z,-0.89
2022-12-06T17:47:03.297Z,-0.81
2022-12-06T17:49:29.891Z,-0.83
2022-12-06T17:51:57.074Z,-0.87
2022-12-06T17:54:24.016Z,-0.88
2022-12-06T17:56:51.884Z,-0.90
2022-12-06T17:59:20.279Z,-0.92
2022-12-06T18:04:34.120Z,-0.95
2022-12-06T18:07:00.657Z,-0.96
2022-12-06T18:09:27.205Z,-0.97
2022-12-06T18:11:55.709Z,-0.96
2022-12-06T18:14:22.245Z,-0.97
2022-12-06T18:16:48.927Z,-0.98
2022-12-06T18:19:17.161Z,-1.02
2022-12-06T18:21:44.215Z,-1.09
2022-12-06T18:24:21.370Z,-1.30
2022-12-06T18:26:49.366Z,-1.32
2022-12-06T18:29:17.428Z,-1.31
2022-12-06T18:31:44.163Z,-1.34
2022-12-06T18:34:11.332Z,-1.35
2022-12-06T18:36:38.384Z,-1.32
2022-12-06T18:39:09.607Z,-1.45
2022-12-06T18:41:39.259Z,-1.48
2022-12-06T18:44:05.937Z,-1.52
2022-12-06T18:46:32.607Z,-1.53
2022-12-06T18:49:00.000Z,-1.51
2022-12-06T18:51:31.029Z,-1.48
2022-12-06T18:53:58.407Z,-1.50
2022-12-06T18:56:25.547Z,-1.51
2022-12-06T18:58:52.622Z,-1.53
2022-12-06T19:01:20.994Z,-1.60
2022-12-06T19:03:47.870Z,-1.60
2022-12-06T19:06:15.643Z,-1.54
2022-12-06T19:08:43.586Z,-1.54
2022-12-06T19:11:20.684Z,-1.60
2022-12-06T19:13:50.698Z,-1.59
2022-12-06T19:16:17.912Z,-1.56
2022-12-06T19:18:44.525Z,-1.56
2022-12-06T19:21:11.124Z,-1.58
2022-12-06T19:23:37.656Z,-1.54
2022-12-06T19:26:04.663Z,-1.48
2022-12-06T19:28:31.860Z,-1.42
2022-12-06T19:31:03.218Z,-1.39
2022-12-06T19:33:30.508Z,-1.41
2022-12-06T19:35:57.810Z,-1.37
2022-12-06T19:38:25.150Z,-1.39
2022-12-06T19:40:52.527Z,-1.36
2022-12-06T19:43:43.533Z,-1.36
2022-12-06T19:46:13.028Z,-1.33
2022-12-06T19:48:39.724Z,-1.30
2022-12-06T19:51:07.019Z,-1.31
2022-12-06T19:53:37.401Z,-1.28
2022-12-06T19:56:06.085Z,-1.24
2022-12-06T19:58:32.776Z,-1.20
2022-12-06T20:00:59.465Z,-1.26
2022-12-06T20:03:26.125Z,-1.26
2022-12-06T20:06:03.938Z,-1.23
2022-12-06T20:08:30.649Z,-1.13
2022-12-06T20:11:01.333Z,-1.09
2022-12-06T20:13:27.864Z,-1.07
2022-12-06T20:15:58.980Z,-1.04
2022-12-06T20:18:25.576Z,-1.00
2022-12-06T20:20:52.206Z,-0.99
2022-12-06T20:23:18.810Z,-0.93
2022-12-06T20:25:45.460Z,-0.97
2022-12-06T20:28:13.683Z,-0.98
2022-12-06T20:30:40.679Z,-0.95
2022-12-06T20:33:07.325Z,-0.92
2022-12-06T20:35:36.727Z,-0.86
2022-12-06T20:38:03.319Z,-0.90
2022-12-06T20:40:31.569Z,-0.90
2022-12-06T20:42:58.491Z,-0.89
2022-12-06T20:45:25.057Z,-0.87
2022-12-06T20:47:52.020Z,-0.82
2022-12-06T20:50:18.694Z,-0.82
2022-12-06T20:52:45.361Z,-0.83
2022-12-06T20:55:11.937Z,-0.78
2022-12-06T20:57:38.494Z,-0.76
2022-12-06T21:00:07.770Z,-0.82
2022-12-06T21:02:34.780Z,-0.85
2022-12-06T21:05:01.409Z,-0.84
2022-12-06T21:07:27.937Z,-0.84
2022-12-06T21:09:54.455Z,-0.85
2022-12-06T21:12:22.409Z,-0.87
2022-12-06T21:14:49.014Z,-0.90
2022-12-06T21:17:15.561Z,-0.92
2022-12-06T21:19:42.728Z,-0.93
2022-12-06T21:22:09.324Z,-0.89
2022-12-06T21:24:36.054Z,-0.88
2022-12-06T21:27:02.616Z,-0.89
2022-12-06T21:29:31.176Z,-0.87
2022-12-06T21:31:59.901Z,-0.84
2022-12-06T21:34:26.495Z,-0.85
2022-12-06T21:36:53.011Z,-0.82
2022-12-06T21:39:19.561Z,-0.85
2022-12-06T21:41:46.163Z,-0.88
2022-12-06T21:44:12.748Z,-0.84
2022-12-06T21:46:39.341Z,-0.78
2022-12-06T21:49:06.025Z,-0.83
2022-12-06T21:51:32.901Z,-0.85
2022-12-06T21:53:59.648Z,-0.89
2022-12-06T21:56:28.384Z,-0.86
2022-12-06T21:58:55.407Z,-0.83
2022-12-06T22:01:28.260Z,-0.79
2022-12-06T22:03:56.009Z,-0.73
2022-12-06T22:06:22.927Z,-0.76
2022-12-06T22:08:55.287Z,-0.75
2022-12-06T22:11:21.848Z,-0.75
2022-12-06T22:13:48.456Z,-0.76
2022-12-06T22:16:15.645Z,-0.76
2022-12-06T22:18:45.572Z,-0.76
2022-12-06T22:21:17.930Z,-0.75
2022-12-06T22:23:44.939Z,-0.73
2022-12-06T22:26:13.680Z,-0.70
2022-12-06T22:28:40.202Z,-0.66
2022-12-06T22:31:10.970Z,-0.64
2022-12-06T22:33:37.668Z,-0.66
2022-12-06T22:36:04.405Z,-0.60
2022-12-06T22:38:30.985Z,-0.58
2022-12-06T22:40:58.840Z,-0.56
2022-12-06T22:43:25.486Z,-0.55
2022-12-06T22:45:52.097Z,-0.55
2022-12-06T22:48:18.618Z,-0.54
2022-12-06T22:50:45.213Z,-0.55
2022-12-06T22:53:11.788Z,-0.60
2022-12-06T22:55:38.361Z,-0.70
2022-12-06T22:58:04.936Z,-0.69
2022-12-06T23:00:31.489Z,-0.68
2022-12-06T23:02:58.506Z,-0.67
2022-12-06T23:05:25.046Z,-0.67
2022-12-06T23:07:51.667Z,-0.73
2022-12-06T23:10:18.269Z,-0.74
2022-12-06T23:12:44.821Z,-0.78
2022-12-06T23:15:11.417Z,-0.78
2022-12-06T23:17:39.287Z,-0.79
2022-12-06T23:20:06.661Z,-0.81
2022-12-06T23:22:33.186Z,-0.92
2022-12-06T23:24:59.764Z,-0.97
2022-12-06T23:27:26.421Z,-0.97
2022-12-06T23:29:52.968Z,-0.96
2022-12-06T23:32:19.569Z,-0.98
2022-12-06T23:34:46.084Z,-1.02
2022-12-06T23:37:12.610Z,-1.05
2022-12-06T23:39:39.168Z,-1.13
2022-12-06T23:42:05.699Z,-1.19
2022-12-06T23:44:32.288Z,-1.21
2022-12-06T23:46:58.805Z,-1.22
2022-12-06T23:49:25.336Z,-1.20
2022-12-06T23:51:51.859Z,-1.28
2022-12-06T23:54:18.626Z,-1.39
2022-12-06T23:56:45.607Z,-1.41
2022-12-06T23:59:14.575Z,-1.41
